Time;durP1;ratioP1;P1;durP2;ratioP2;P2;SDS_P1;SDS_P2;PMS_P1;PMS_P2;Temp;Humidity;BMP_temperature;BMP_pressure;BME280_temperature;BME280_humidity;BME280_pressure;Samples;Min_cycle;Max_cycle;Signal;HPM_P1;HPM_P2
2023/04/14 00:00:47;;;;;;;;;;;6.51;22.76;;;;;;2670984;76;20435;-92
2023/04/14 00:04:15;;;;;;;;;;;6.25;23.43;;;;;;2670662;76;20814;-92
2023/04/14 00:07:43;;;;;;;;;;;6.28;24.21;;;;;;2670599;76;20418;-91
2023/04/14 00:11:11;;;;;;;;;;;6.46;24.26;;;;;;2669823;76;20459;-92
2023/04/14 00:14:41;;;;;;;;;;;6.40;24.51;;;;;;2671363;76;20327;-92
2023/04/14 00:18:09;;;;;;;;;;;6.39;24.89;;;;;;2671563;76;20487;-92
2023/04/14 00:21:37;;;;;;;;;;;6.19;25.63;;;;;;2671064;76;21012;-93
2023/04/14 00:25:06;;;;;;;;;;;6.13;26.36;;;;;;2671309;76;20438;-93
2023/04/14 00:28:34;;;;;;;;;;;6.30;26.44;;;;;;2671142;76;20462;-92
2023/04/14 00:32:02;;;;;;;;;;;6.15;26.23;;;;;;2670931;76;20440;-94
2023/04/14 00:35:30;;;;;;;;;;;6.00;26.83;;;;;;2671209;76;20971;-94
2023/04/14 00:38:59;;;;;;;;;;;6.01;27.28;;;;;;2672740;76;20474;-94
2023/04/14 00:42:27;;;;;;;;;;;6.06;27.44;;;;;;2674911;76;20445;-93
2023/04/14 00:46:01;;;;;;;;;;;6.00;27.90;;;;;;2676629;76;20462;-95
2023/04/14 00:49:30;;;;;;;;;;;5.98;28.67;;;;;;2675304;76;20525;-94
2023/04/14 00:52:58;;;;;;;;;;;6.21;28.63;;;;;;2674496;76;20422;-94
2023/04/14 00:56:31;;;;;;;;;;;6.26;28.00;;;;;;2672954;76;20799;-94
2023/04/14 01:00:00;;;;;;;;;;;6.14;28.58;;;;;;2671904;76;20422;-92
2023/04/14 01:03:28;;;;;;;;;;;6.08;28.90;;;;;;2671292;76;20332;-93
2023/04/14 01:06:56;;;;;;;;;;;6.15;29.47;;;;;;2670636;76;20637;-91
2023/04/14 01:10:24;;;;;;;;;;;6.02;29.93;;;;;;2670986;76;20482;-92
2023/04/14 01:13:55;;;;;;;;;;;6.19;30.58;;;;;;2670038;76;20933;-92
2023/04/14 01:17:23;;;;;;;;;;;6.31;30.58;;;;;;2670512;76;20422;-93
2023/04/14 01:20:52;;;;;;;;;;;6.33;29.80;;;;;;2670142;76;20917;-92
2023/04/14 01:24:20;;;;;;;;;;;6.34;29.70;;;;;;2670615;76;20633;-92
2023/04/14 01:27:48;;;;;;;;;;;6.30;29.55;;;;;;2671060;76;20445;-92
2023/04/14 01:31:16;;;;;;;;;;;6.15;29.49;;;;;;2670046;76;20972;-93
2023/04/14 01:34:44;;;;;;;;;;;5.97;30.09;;;;;;2671707;76;20467;-92
2023/04/14 01:38:13;;;;;;;;;;;5.99;31.13;;;;;;2671170;76;20900;-93
2023/04/14 01:41:41;;;;;;;;;;;6.07;31.38;;;;;;2669512;76;20519;-92
2023/04/14 01:45:09;;;;;;;;;;;5.92;31.59;;;;;;2671339;76;20351;-93
2023/04/14 01:48:38;;;;;;;;;;;6.06;31.57;;;;;;2670658;76;21258;-93
2023/04/14 01:52:06;;;;;;;;;;;5.91;31.67;;;;;;2670745;76;20456;-92
2023/04/14 01:55:34;;;;;;;;;;;6.00;31.67;;;;;;2671403;76;20300;-93
2023/04/14 01:59:02;;;;;;;;;;;6.10;31.45;;;;;;2670652;76;20314;-93
2023/04/14 02:02:30;;;;;;;;;;;5.84;31.22;;;;;;2670503;76;20312;-93
2023/04/14 02:05:58;;;;;;;;;;;5.77;32.33;;;;;;2670998;76;20498;-92
2023/04/14 02:09:26;;;;;;;;;;;5.79;32.80;;;;;;2671251;76;20424;-93
2023/04/14 02:12:55;;;;;;;;;;;5.81;32.79;;;;;;2670650;76;21093;-93
2023/04/14 02:16:23;;;;;;;;;;;5.82;32.94;;;;;;2670888;76;20414;-93
2023/04/14 02:19:51;;;;;;;;;;;5.89;32.56;;;;;;2670493;76;21046;-93
2023/04/14 02:23:19;;;;;;;;;;;5.81;32.87;;;;;;2671086;76;20460;-93
2023/04/14 02:26:47;;;;;;;;;;;5.60;33.73;;;;;;2671088;76;20431;-93
2023/04/14 02:30:15;;;;;;;;;;;5.47;34.69;;;;;;2670614;76;20464;-93
2023/04/14 02:33:44;;;;;;;;;;;5.40;35.11;;;;;;2671063;76;20432;-93
2023/04/14 02:37:12;;;;;;;;;;;5.48;35.80;;;;;;2670448;76;20474;-93
2023/04/14 02:40:40;;;;;;;;;;;5.24;34.78;;;;;;2669635;76;20449;-93
2023/04/14 02:44:08;;;;;;;;;;;5.25;35.18;;;;;;2670630;76;20423;-93
2023/04/14 02:47:36;;;;;;;;;;;5.25;35.66;;;;;;2671229;76;20471;-94
2023/04/14 02:51:04;;;;;;;;;;;5.16;35.61;;;;;;2670450;76;20469;-93
2023/04/14 02:58:14;;;;;;;;;;;5.25;35.64;;;;;;2682522;76;20317;-92
2023/04/14 03:10:21;;;;;;;;;;;5.47;35.21;;;;;;2674785;76;20420;-93
2023/04/14 03:13:59;;;;;;;;;;;5.60;34.71;;;;;;2675929;76;20431;-93
2023/04/14 03:30:52;;;;;;;;;;;5.92;33.20;;;;;;2684752;75;20388;-90
2023/04/14 03:34:35;;;;;;;;;;;5.78;32.33;;;;;;2684478;75;20796;-90
2023/04/14 03:38:05;;;;;;;;;;;5.70;32.49;;;;;;2684984;76;20393;-91
2023/04/14 03:41:47;;;;;;;;;;;5.78;32.44;;;;;;2684659;76;20458;-91
2023/04/14 03:45:23;;;;;;;;;;;5.72;32.07;;;;;;2683955;76;20416;-90
2023/04/14 03:49:47;;;;;;;;;;;;;;;;;;;;;
2023/04/14 03:53:27;;;;;;;;;;;5.45;33.59;;;;;;2684890;76;20530;-91
2023/04/14 03:57:09;;;;;;;;;;;5.46;33.90;;;;;;2684113;75;20410;-91
2023/04/14 04:01:09;;;;;;;;;;;5.52;34.34;;;;;;2683855;76;20373;-91
2023/04/14 04:04:36;;;;;;;;;;;5.61;34.53;;;;;;2684470;76;20408;-91
2023/04/14 04:08:10;;;;;;;;;;;5.76;34.28;;;;;;2683950;76;20393;-91
2023/04/14 04:11:48;;;;;;;;;;;5.74;34.66;;;;;;2683570;76;20359;-91
2023/04/14 04:15:18;;;;;;;;;;;5.77;34.70;;;;;;2684060;76;20365;-92
2023/04/14 04:18:50;;;;;;;;;;;5.77;34.90;;;;;;2683921;76;20592;-92
2023/04/14 04:22:50;;;;;;;;;;;;;;;;;;;;;
2023/04/14 04:26:06;;;;;;;;;;;5.74;35.99;;;;;;2681332;75;20292;-92
2023/04/14 04:29:51;;;;;;;;;;;5.66;36.90;;;;;;2685465;75;20816;-91
2023/04/14 04:33:20;;;;;;;;;;;5.63;37.50;;;;;;2686902;76;20230;-92
2023/04/14 04:37:05;;;;;;;;;;;5.95;36.84;;;;;;2686322;75;20299;-92
2023/04/14 04:49:54;;;;;;;;;;;5.72;38.65;;;;;;2680453;76;20302;-92
2023/04/14 04:53:22;;;;;;;;;;;5.69;39.37;;;;;;2685483;76;20251;-91
2023/04/14 04:56:51;;;;;;;;;;;5.71;39.81;;;;;;2686779;76;20496;-90
2023/04/14 05:00:21;;;;;;;;;;;5.79;39.81;;;;;;2686125;76;20231;-91
2023/04/14 05:03:49;;;;;;;;;;;5.78;39.76;;;;;;2686129;76;20448;-90
2023/04/14 05:07:18;;;;;;;;;;;5.72;39.61;;;;;;2686270;76;20511;-90
2023/04/14 05:10:55;;;;;;;;;;;5.87;39.26;;;;;;2685960;76;20271;-92
2023/04/14 05:14:41;;;;;;;;;;;;;;;;;;;;;
2023/04/14 05:18:21;;;;;;;;;;;5.72;39.41;;;;;;2684589;76;20265;-91
2023/04/14 05:21:51;;;;;;;;;;;5.87;39.07;;;;;;2686312;76;20251;-91
2023/04/14 05:25:27;;;;;;;;;;;5.96;38.52;;;;;;2686709;76;20332;-90
2023/04/14 05:28:59;;;;;;;;;;;5.85;38.57;;;;;;2686957;76;20242;-90
2023/04/14 05:32:27;;;;;;;;;;;5.86;38.92;;;;;;2687549;76;20274;-90
2023/04/14 05:39:38;;;;;;;;;;;5.95;39.00;;;;;;2686758;76;20239;-91
2023/04/14 05:43:06;;;;;;;;;;;5.85;38.90;;;;;;2685729;76;20512;-90
2023/04/14 05:46:40;;;;;;;;;;;5.75;38.92;;;;;;2687398;76;20221;-89
2023/04/14 05:50:11;;;;;;;;;;;5.79;39.62;;;;;;2686415;76;20278;-90
2023/04/14 05:53:44;;;;;;;;;;;5.89;39.07;;;;;;2685408;76;20224;-90
2023/04/14 05:57:17;;;;;;;;;;;5.91;39.11;;;;;;2687256;76;20258;-91
2023/04/14 06:00:45;;;;;;;;;;;6.13;39.17;;;;;;2687545;76;20475;-91
2023/04/14 06:04:14;;;;;;;;;;;6.14;38.55;;;;;;2687431;76;20428;-91
2023/04/14 06:07:48;;;;;;;;;;;6.02;38.50;;;;;;2687807;76;20222;-90
2023/04/14 06:11:24;;;;;;;;;;;6.05;37.93;;;;;;2687280;76;20263;-90
2023/04/14 06:14:55;;;;;;;;;;;6.14;38.59;;;;;;2687814;76;20259;-90
2023/04/14 06:18:24;;;;;;;;;;;6.27;37.89;;;;;;2687555;76;20232;-90
2023/04/14 06:21:52;;;;;;;;;;;6.30;37.66;;;;;;2686098;76;20206;-90
2023/04/14 06:25:24;;;;;;;;;;;6.33;36.59;;;;;;2687258;76;20260;-90
2023/04/14 06:28:52;;;;;;;;;;;6.53;37.38;;;;;;2687483;76;20267;-89
2023/04/14 06:32:20;;;;;;;;;;;6.68;36.59;;;;;;2686671;76;20227;-90
2023/04/14 06:35:51;;;;;;;;;;;6.58;36.47;;;;;;2687473;76;20252;-91
2023/04/14 06:39:21;;;;;;;;;;;6.43;35.23;;;;;;2687662;76;20237;-90
2023/04/14 06:42:49;;;;;;;;;;;6.44;35.75;;;;;;2687049;76;20408;-89
2023/04/14 06:46:17;;;;;;;;;;;6.52;36.03;;;;;;2686974;76;20286;-90
2023/04/14 06:49:48;;;;;;;;;;;6.74;36.14;;;;;;2685739;76;20287;-91
2023/04/14 06:53:16;;;;;;;;;;;6.46;34.38;;;;;;2683652;76;20305;-90
2023/04/14 06:56:44;;;;;;;;;;;6.40;35.51;;;;;;2683537;76;20840;-91
2023/04/14 07:00:12;;;;;;;;;;;6.44;35.78;;;;;;2678871;76;20297;-92
2023/04/14 07:03:41;;;;;;;;;;;6.68;36.02;;;;;;2679877;76;20312;-92
2023/04/14 07:07:09;;;;;;;;;;;6.84;34.71;;;;;;2680807;76;20293;-92
2023/04/14 07:10:37;;;;;;;;;;;6.90;34.02;;;;;;2680900;76;20323;-91
2023/04/14 07:14:08;;;;;;;;;;;6.79;33.92;;;;;;2683605;76;20246;-91
2023/04/14 07:17:39;;;;;;;;;;;6.63;33.64;;;;;;2674145;76;20306;-90
2023/04/14 07:21:08;;;;;;;;;;;6.82;34.60;;;;;;2674002;76;20350;-92
2023/04/14 07:24:42;;;;;;;;;;;7.03;34.86;;;;;;2674482;76;20318;-92
2023/04/14 07:28:07;;;;;;;;;;;6.96;34.13;;;;;;2673597;76;20745;-92
2023/04/14 07:31:40;;;;;;;;;;;6.94;34.65;;;;;;2674032;76;20757;-91
2023/04/14 07:35:09;;;;;;;;;;;7.12;34.64;;;;;;2674579;76;20768;-90
2023/04/14 07:38:36;;;;;;;;;;;6.86;33.70;;;;;;2673423;76;20343;-90
2023/04/14 07:42:06;;;;;;;;;;;7.01;34.66;;;;;;2673409;76;20341;-90
2023/04/14 07:45:34;;;;;;;;;;;6.90;34.63;;;;;;2673432;76;20639;-90
2023/04/14 07:49:02;;;;;;;;;;;6.88;34.59;;;;;;2673562;76;20319;-90
2023/04/14 07:52:31;;;;;;;;;;;7.10;34.05;;;;;;2674288;76;20849;-90
2023/04/14 07:55:59;;;;;;;;;;;7.32;33.56;;;;;;2673838;76;20306;-90
2023/04/14 07:59:27;;;;;;;;;;;7.55;32.58;;;;;;2674309;76;20319;-91
2023/04/14 08:02:57;;;;;;;;;;;7.77;32.02;;;;;;2673991;76;20328;-90
2023/04/14 08:06:26;;;;;;;;;;;7.62;30.85;;;;;;2674475;76;20308;-91
2023/04/14 08:09:54;;;;;;;;;;;7.72;31.41;;;;;;2675197;76;20324;-91
2023/04/14 08:13:23;;;;;;;;;;;7.90;30.66;;;;;;2674808;76;20345;-91
2023/04/14 08:16:51;;;;;;;;;;;7.85;29.58;;;;;;2674857;76;20291;-91
2023/04/14 08:20:19;;;;;;;;;;;8.03;29.70;;;;;;2673526;76;20375;-90
2023/04/14 08:23:47;;;;;;;;;;;8.11;28.70;;;;;;2673066;76;20313;-90
2023/04/14 08:27:15;;;;;;;;;;;8.41;29.48;;;;;;2672322;76;20329;-90
2023/04/14 08:30:43;;;;;;;;;;;8.19;27.26;;;;;;2674218;76;20449;-90
2023/04/14 08:34:11;;;;;;;;;;;8.23;28.58;;;;;;2674115;76;20361;-91
2023/04/14 08:37:40;;;;;;;;;;;8.33;27.78;;;;;;2672248;76;20344;-90
2023/04/14 08:41:08;;;;;;;;;;;8.20;27.58;;;;;;2673236;76;20314;-91
2023/04/14 08:44:36;;;;;;;;;;;8.14;28.07;;;;;;2673573;76;20331;-92
2023/04/14 08:48:04;;;;;;;;;;;8.14;28.00;;;;;;2679212;76;20223;-91
2023/04/14 08:52:55;;;;;;;;;;;8.26;27.78;;;;;;2673445;76;20376;-91
2023/04/14 08:56:27;;;;;;;;;;;8.36;28.00;;;;;;2674116;76;20338;-90
2023/04/14 09:00:07;;;;;;;;;;;;;;;;;;;;;
2023/04/14 09:18:17;;;;;;;;;;;8.74;25.33;;;;;;2665235;76;20371;-93
2023/04/14 09:21:48;;;;;;;;;;;8.60;25.35;;;;;;2676368;76;20556;-91
2023/04/14 09:25:16;;;;;;;;;;;8.67;26.40;;;;;;2673199;76;20674;-90
2023/04/14 09:28:44;;;;;;;;;;;8.70;26.33;;;;;;2673343;76;20354;-90
2023/04/14 09:32:14;;;;;;;;;;;8.35;25.32;;;;;;2673406;76;20342;-90
2023/04/14 09:35:53;;;;;;;;;;;;;;;;;;;;;
2023/04/14 09:39:21;;;;;;;;;;;8.51;25.29;;;;;;2673552;76;20345;-93
2023/04/14 09:42:50;;;;;;;;;;;8.92;26.42;;;;;;2672780;76;20335;-91
2023/04/14 09:46:21;;;;;;;;;;;9.62;25.71;;;;;;2673453;76;20401;-92
2023/04/14 09:49:49;;;;;;;;;;;9.75;24.63;;;;;;2675108;76;20343;-91
2023/04/14 09:53:25;;;;;;;;;;;9.92;22.83;;;;;;2675137;76;20312;-92
2023/04/14 09:56:56;;;;;;;;;;;9.51;22.21;;;;;;2674456;76;20321;-93
2023/04/14 10:00:23;;;;;;;;;;;9.60;22.79;;;;;;2674250;76;20335;-92
2023/04/14 10:03:54;;;;;;;;;;;9.83;23.68;;;;;;2674773;76;20354;-92
2023/04/14 10:07:23;;;;;;;;;;;9.14;23.48;;;;;;2678848;76;20825;-91
2023/04/14 10:10:51;;;;;;;;;;;9.90;24.69;;;;;;2675588;76;20399;-92
2023/04/14 10:14:19;;;;;;;;;;;9.77;22.03;;;;;;2673839;76;20343;-90
2023/04/14 10:17:47;;;;;;;;;;;9.27;20.97;;;;;;2672476;76;20346;-90
2023/04/14 10:21:20;;;;;;;;;;;9.46;21.98;;;;;;2673339;76;20394;-90
2023/04/14 10:24:47;;;;;;;;;;;9.84;21.89;;;;;;2672271;76;20468;-90
2023/04/14 10:28:16;;;;;;;;;;;9.65;21.69;;;;;;2672131;76;20357;-93
2023/04/14 10:31:44;;;;;;;;;;;9.02;22.42;;;;;;2672832;76;20352;-91
2023/04/14 10:35:12;;;;;;;;;;;9.40;24.01;;;;;;2673001;76;20326;-90
2023/04/14 10:38:41;;;;;;;;;;;10.21;22.06;;;;;;2673136;76;20324;-90
2023/04/14 10:42:09;;;;;;;;;;;11.20;19.94;;;;;;2672484;76;20315;-92
2023/04/14 10:45:39;;;;;;;;;;;10.50;17.54;;;;;;2672904;76;20305;-91
2023/04/14 10:49:07;;;;;;;;;;;10.36;19.10;;;;;;2672992;76;20378;-92
2023/04/14 10:52:36;;;;;;;;;;;10.31;18.69;;;;;;2673350;76;20324;-92
2023/04/14 10:56:05;;;;;;;;;;;11.10;16.79;;;;;;2673495;76;20311;-90
2023/04/14 10:59:33;;;;;;;;;;;11.03;14.89;;;;;;2673436;76;20337;-92
2023/04/14 11:03:04;;;;;;;;;;;10.83;15.39;;;;;;2672898;76;20359;-93
2023/04/14 11:06:32;;;;;;;;;;;11.11;13.89;;;;;;2672294;76;20337;-91
2023/04/14 11:10:02;;;;;;;;;;;12.35;13.04;;;;;;2674071;76;20334;-91
2023/04/14 11:13:30;;;;;;;;;;;13.40;10.52;;;;;;2671403;76;20355;-90
2023/04/14 11:17:03;;;;;;;;;;;12.35;6.60;;;;;;2672666;76;20827;-89
2023/04/14 11:20:33;;;;;;;;;;;12.06;7.69;;;;;;2671654;76;20375;-91
2023/04/14 11:24:01;;;;;;;;;;;11.84;7.18;;;;;;2671713;76;20303;-91
2023/04/14 11:27:29;;;;;;;;;;;11.98;8.36;;;;;;2672231;76;20341;-90
2023/04/14 11:30:58;;;;;;;;;;;12.03;8.79;;;;;;2673701;76;20339;-93
2023/04/14 11:34:31;;;;;;;;;;;11.67;7.67;;;;;;2672394;76;20324;-91
2023/04/14 11:37:56;;;;;;;;;;;12.31;7.15;;;;;;2671381;76;20314;-91
2023/04/14 11:41:24;;;;;;;;;;;12.21;5.33;;;;;;2672895;76;20349;-91
2023/04/14 11:45:04;;;;;;;;;;;12.22;4.58;;;;;;2672295;76;20348;-91
2023/04/14 11:48:32;;;;;;;;;;;12.55;3.96;;;;;;2671692;76;20325;-92
2023/04/14 11:52:00;;;;;;;;;;;12.43;4.49;;;;;;2672743;76;20328;-91
2023/04/14 11:55:28;;;;;;;;;;;12.28;5.22;;;;;;2674318;76;20345;-91
2023/04/14 11:59:01;;;;;;;;;;;12.38;2.52;;;;;;2674126;76;20323;-91
2023/04/14 12:02:31;;;;;;;;;;;12.80;2.00;;;;;;2674030;76;20322;-92
2023/04/14 12:06:00;;;;;;;;;;;13.23;1.56;;;;;;2674879;76;20333;-91
2023/04/14 12:09:28;;;;;;;;;;;13.70;1.33;;;;;;2674335;76;20756;-91
2023/04/14 12:12:56;;;;;;;;;;;13.49;1.53;;;;;;2674282;76;20297;-91
2023/04/14 12:16:25;;;;;;;;;;;13.77;1.57;;;;;;2674528;76;20328;-92
2023/04/14 12:19:53;;;;;;;;;;;13.62;-1.12;;;;;;2673528;76;20343;-93
2023/04/14 12:23:22;;;;;;;;;;;13.73;-0.85;;;;;;2674172;76;20304;-93
2023/04/14 12:26:50;;;;;;;;;;;14.70;-0.12;;;;;;2674703;76;20302;-91
2023/04/14 12:30:18;;;;;;;;;;;14.21;-3.59;;;;;;2674607;76;20453;-92
2023/04/14 12:33:46;;;;;;;;;;;14.33;-2.06;;;;;;2674874;76;20778;-92
2023/04/14 12:37:15;;;;;;;;;;;14.29;-1.91;;;;;;2674035;76;20308;-92
2023/04/14 12:40:44;;;;;;;;;;;14.21;-1.74;;;;;;2674532;76;20741;-92
2023/04/14 12:44:13;;;;;;;;;;;13.79;-2.38;;;;;;2674763;76;20306;-92
2023/04/14 12:47:41;;;;;;;;;;;14.00;-1.69;;;;;;2674481;76;20364;-92
2023/04/14 12:51:09;;;;;;;;;;;13.71;-0.20;;;;;;2674130;76;20320;-92
2023/04/14 12:54:37;;;;;;;;;;;11.84;0.94;;;;;;2675047;76;20308;-91
2023/04/14 12:58:05;;;;;;;;;;;7.69;14.44;;;;;;2674237;76;20293;-91
2023/04/14 13:01:33;;;;;;;;;;;7.26;21.52;;;;;;2674689;76;20425;-91
2023/04/14 13:05:04;;;;;;;;;;;8.83;26.61;;;;;;2674254;76;20323;-91
2023/04/14 13:08:33;;;;;;;;;;;10.09;24.89;;;;;;2674914;76;20328;-91
2023/04/14 13:12:03;;;;;;;;;;;10.88;21.36;;;;;;2674901;76;20795;-91
2023/04/14 13:15:31;;;;;;;;;;;12.07;22.27;;;;;;2674598;76;20759;-91
2023/04/14 13:18:59;;;;;;;;;;;12.95;21.01;;;;;;2674614;76;20764;-92
2023/04/14 13:22:27;;;;;;;;;;;13.12;18.01;;;;;;2673948;76;20335;-92
2023/04/14 13:25:55;;;;;;;;;;;12.73;15.99;;;;;;2674688;76;20336;-92
2023/04/14 13:29:24;;;;;;;;;;;13.06;17.11;;;;;;2674533;76;20355;-91
2023/04/14 13:32:52;;;;;;;;;;;13.31;18.65;;;;;;2674289;76;20339;-94
2023/04/14 13:36:21;;;;;;;;;;;13.54;16.89;;;;;;2674528;76;20776;-93
2023/04/14 13:39:49;;;;;;;;;;;12.86;14.20;;;;;;2675212;76;20839;-93
2023/04/14 13:43:17;;;;;;;;;;;12.79;15.60;;;;;;2675111;76;20343;-92
2023/04/14 13:46:47;;;;;;;;;;;12.63;16.91;;;;;;2674528;76;20308;-93
2023/04/14 13:50:16;;;;;;;;;;;12.64;17.15;;;;;;2674663;76;20339;-91
2023/04/14 13:53:44;;;;;;;;;;;12.47;16.87;;;;;;2674272;76;20508;-92
2023/04/14 13:57:12;;;;;;;;;;;12.22;18.45;;;;;;2674829;76;20770;-93
2023/04/14 14:00:40;;;;;;;;;;;11.99;17.73;;;;;;2676007;76;20781;-92
2023/04/14 14:04:09;;;;;;;;;;;11.94;19.38;;;;;;2675320;76;20328;-93
2023/04/14 14:07:37;;;;;;;;;;;11.16;17.80;;;;;;2675769;76;20306;-92
2023/04/14 14:11:05;;;;;;;;;;;10.46;16.77;;;;;;2675670;76;20342;-92
2023/04/14 14:14:33;;;;;;;;;;;9.07;15.25;;;;;;2675604;76;20311;-91
2023/04/14 14:18:01;;;;;;;;;;;8.68;16.68;;;;;;2674436;76;20298;-91
2023/04/14 14:21:30;;;;;;;;;;;8.51;18.35;;;;;;2674899;76;20368;-92
2023/04/14 14:25:05;;;;;;;;;;;8.63;19.97;;;;;;2678969;76;20727;-91
2023/04/14 14:28:33;;;;;;;;;;;9.00;19.97;;;;;;2678882;76;20309;-91
2023/04/14 14:32:06;;;;;;;;;;;9.74;20.59;;;;;;2677519;76;20357;-91
2023/04/14 14:35:34;;;;;;;;;;;10.23;18.77;;;;;;2675542;76;20358;-91
2023/04/14 14:39:02;;;;;;;;;;;10.80;18.32;;;;;;2674670;76;20351;-93
2023/04/14 14:42:31;;;;;;;;;;;11.44;19.57;;;;;;2674309;76;20609;-93
2023/04/14 14:46:00;;;;;;;;;;;11.76;20.64;;;;;;2673319;76;20549;-93
2023/04/14 14:49:28;;;;;;;;;;;11.61;19.63;;;;;;2673460;76;20328;-92
2023/04/14 14:52:56;;;;;;;;;;;11.27;20.41;;;;;;2673646;76;20318;-91
2023/04/14 14:56:25;;;;;;;;;;;10.92;22.06;;;;;;2672573;76;20371;-90
2023/04/14 14:59:53;;;;;;;;;;;10.67;21.47;;;;;;2675262;76;20294;-91
2023/04/14 15:03:21;;;;;;;;;;;10.57;22.87;;;;;;2674846;76;20342;-92
2023/04/14 15:06:50;;;;;;;;;;;10.35;22.95;;;;;;2674220;76;20320;-93
2023/04/14 15:10:18;;;;;;;;;;;10.18;23.35;;;;;;2673635;76;20684;-92
2023/04/14 15:13:46;;;;;;;;;;;10.07;24.60;;;;;;2674294;76;20324;-91
2023/04/14 15:17:15;;;;;;;;;;;10.07;25.63;;;;;;2674135;76;20346;-92
2023/04/14 15:20:43;;;;;;;;;;;10.01;25.80;;;;;;2672231;76;20319;-91
2023/04/14 15:24:20;;;;;;;;;;;10.00;26.13;;;;;;2674209;76;20325;-91
2023/04/14 15:27:54;;;;;;;;;;;10.13;26.61;;;;;;2674719;76;20320;-92
2023/04/14 15:31:22;;;;;;;;;;;10.22;25.29;;;;;;2675124;76;20324;-92
2023/04/14 15:34:53;;;;;;;;;;;10.23;24.92;;;;;;2673742;76;20385;-92
2023/04/14 15:38:21;;;;;;;;;;;10.35;24.70;;;;;;2674130;76;20416;-92
2023/04/14 15:41:50;;;;;;;;;;;10.70;25.30;;;;;;2674649;76;20352;-92
2023/04/14 15:45:18;;;;;;;;;;;11.02;25.12;;;;;;2674849;76;20317;-91
2023/04/14 15:48:46;;;;;;;;;;;11.04;23.36;;;;;;2674837;76;20311;-92
2023/04/14 15:52:14;;;;;;;;;;;11.11;24.79;;;;;;2675297;76;20629;-92
2023/04/14 15:55:43;;;;;;;;;;;11.16;25.48;;;;;;2675074;76;20346;-92
2023/04/14 15:59:13;;;;;;;;;;;11.12;26.01;;;;;;2673779;76;20336;-92
2023/04/14 16:02:41;;;;;;;;;;;11.13;26.45;;;;;;2674636;76;20347;-91
2023/04/14 16:06:10;;;;;;;;;;;11.20;27.04;;;;;;2674523;76;20307;-91
2023/04/14 16:09:38;;;;;;;;;;;11.20;26.81;;;;;;2674639;76;20305;-91
2023/04/14 16:13:06;;;;;;;;;;;11.18;26.66;;;;;;2674625;76;20309;-91
2023/04/14 16:16:35;;;;;;;;;;;11.15;26.49;;;;;;2674450;76;20354;-92
2023/04/14 16:20:03;;;;;;;;;;;11.31;26.80;;;;;;2675101;76;20347;-92
2023/04/14 16:23:31;;;;;;;;;;;11.51;26.95;;;;;;2674122;76;20314;-91
2023/04/14 16:27:00;;;;;;;;;;;11.41;26.52;;;;;;2674146;76;20316;-91
2023/04/14 16:30:28;;;;;;;;;;;11.24;26.45;;;;;;2674126;76;20294;-91
2023/04/14 16:33:59;;;;;;;;;;;11.10;26.20;;;;;;2674911;76;20354;-92
2023/04/14 16:37:27;;;;;;;;;;;11.17;26.49;;;;;;2674638;76;20312;-91
2023/04/14 16:40:58;;;;;;;;;;;10.89;26.13;;;;;;2675310;76;20730;-91
2023/04/14 16:44:26;;;;;;;;;;;10.79;27.36;;;;;;2674504;76;20338;-92
2023/04/14 16:47:54;;;;;;;;;;;10.67;27.91;;;;;;2674624;76;20321;-91
2023/04/14 16:51:25;;;;;;;;;;;10.27;26.16;;;;;;2674742;76;20336;-91
2023/04/14 16:54:55;;;;;;;;;;;9.95;27.23;;;;;;2675131;76;20337;-92
2023/04/14 16:58:23;;;;;;;;;;;9.77;28.28;;;;;;2674733;76;20644;-92
2023/04/14 17:01:54;;;;;;;;;;;9.57;28.49;;;;;;2674550;76;20387;-91
2023/04/14 17:05:22;;;;;;;;;;;9.23;27.94;;;;;;2674295;76;20323;-91
2023/04/14 17:08:51;;;;;;;;;;;8.86;26.55;;;;;;2674803;76;20332;-91
2023/04/14 17:12:19;;;;;;;;;;;8.63;26.05;;;;;;2674776;76;20314;-91
2023/04/14 17:15:47;;;;;;;;;;;8.34;24.94;;;;;;2673909;76;20776;-91
2023/04/14 17:19:16;;;;;;;;;;;8.46;26.88;;;;;;2674766;76;20308;-91
2023/04/14 17:22:47;;;;;;;;;;;8.58;27.51;;;;;;2675263;76;20646;-91
2023/04/14 17:26:15;;;;;;;;;;;8.51;27.03;;;;;;2675254;76;20298;-90
2023/04/14 17:29:43;;;;;;;;;;;8.51;27.14;;;;;;2674707;76;20842;-91
2023/04/14 17:33:16;;;;;;;;;;;8.50;27.57;;;;;;2675243;76;20315;-91
2023/04/14 17:36:45;;;;;;;;;;;8.51;27.91;;;;;;2674785;76;20747;-91
2023/04/14 17:40:14;;;;;;;;;;;8.47;28.10;;;;;;2674593;76;20296;-91
2023/04/14 17:43:53;;;;;;;;;;;8.45;28.25;;;;;;2674630;76;20353;-91
2023/04/14 17:47:16;;;;;;;;;;;8.42;28.42;;;;;;2674009;76;20750;-90
2023/04/14 17:50:44;;;;;;;;;;;8.36;28.67;;;;;;2671993;76;20639;-91
2023/04/14 17:54:12;;;;;;;;;;;8.32;28.90;;;;;;2671080;76;20948;-91
2023/04/14 17:57:40;;;;;;;;;;;8.29;29.28;;;;;;2673002;76;20362;-91
2023/04/14 18:01:08;;;;;;;;;;;8.28;29.80;;;;;;2673402;76;20325;-91
2023/04/14 18:04:37;;;;;;;;;;;8.29;30.02;;;;;;2673254;76;20343;-91
2023/04/14 18:08:05;;;;;;;;;;;8.22;30.14;;;;;;2673368;76;20331;-91
2023/04/14 18:11:34;;;;;;;;;;;8.23;30.53;;;;;;2672896;76;20346;-91
2023/04/14 18:15:02;;;;;;;;;;;8.12;30.62;;;;;;2673003;76;20359;-91
2023/04/14 18:18:31;;;;;;;;;;;8.24;30.96;;;;;;2673335;76;20333;-91
2023/04/14 18:22:01;;;;;;;;;;;8.38;31.06;;;;;;2673186;76;20361;-91
2023/04/14 18:25:30;;;;;;;;;;;8.44;30.64;;;;;;2671951;76;20380;-91
2023/04/14 18:28:58;;;;;;;;;;;8.42;30.16;;;;;;2672982;76;20789;-91
2023/04/14 18:32:28;;;;;;;;;;;7.91;29.11;;;;;;2673301;76;20354;-91
2023/04/14 18:35:56;;;;;;;;;;;6.61;23.95;;;;;;2672788;76;20317;-91
2023/04/14 18:39:24;;;;;;;;;;;6.21;28.01;;;;;;2673916;76;20310;-91
2023/04/14 18:43:00;;;;;;;;;;;6.45;33.89;;;;;;2673323;76;20315;-91
2023/04/14 18:46:28;;;;;;;;;;;6.80;35.33;;;;;;2674152;76;20316;-91
2023/04/14 18:49:59;;;;;;;;;;;7.03;35.47;;;;;;2673857;76;20644;-91
2023/04/14 18:53:27;;;;;;;;;;;7.13;35.49;;;;;;2673298;76;20412;-91
2023/04/14 18:57:02;;;;;;;;;;;7.17;35.88;;;;;;2673101;76;20780;-91
2023/04/14 19:00:28;;;;;;;;;;;7.15;35.40;;;;;;2673477;76;20343;-91
2023/04/14 19:03:56;;;;;;;;;;;7.15;35.56;;;;;;2673895;76;20369;-91
2023/04/14 19:07:27;;;;;;;;;;;7.24;36.02;;;;;;2673551;76;20350;-91
2023/04/14 19:10:55;;;;;;;;;;;7.33;36.50;;;;;;2673855;76;20338;-91
2023/04/14 19:14:23;;;;;;;;;;;7.49;36.36;;;;;;2673019;76;20352;-91
2023/04/14 19:17:52;;;;;;;;;;;7.59;36.14;;;;;;2673870;76;20781;-90
2023/04/14 19:21:23;;;;;;;;;;;7.65;35.85;;;;;;2673476;76;20792;-91
2023/04/14 19:24:52;;;;;;;;;;;7.70;35.49;;;;;;2673832;76;20313;-90
2023/04/14 19:28:20;;;;;;;;;;;7.73;35.56;;;;;;2672724;76;20746;-91
2023/04/14 19:31:48;;;;;;;;;;;7.69;35.28;;;;;;2673776;76;20399;-90
2023/04/14 19:35:16;;;;;;;;;;;7.52;34.89;;;;;;2673189;76;20314;-90
2023/04/14 19:38:45;;;;;;;;;;;7.64;36.18;;;;;;2673373;76;20323;-90
2023/04/14 19:42:13;;;;;;;;;;;7.63;35.72;;;;;;2673147;76;20351;-91
2023/04/14 19:45:41;;;;;;;;;;;7.55;34.92;;;;;;2673650;76;20662;-90
2023/04/14 19:49:12;;;;;;;;;;;7.41;34.56;;;;;;2672399;76;20338;-90
2023/04/14 19:52:45;;;;;;;;;;;7.44;35.58;;;;;;2672603;76;20333;-90
2023/04/14 19:56:13;;;;;;;;;;;7.41;35.63;;;;;;2673474;76;20593;-91
2023/04/14 19:59:41;;;;;;;;;;;7.46;36.28;;;;;;2673167;76;20338;-91
2023/04/14 20:03:09;;;;;;;;;;;7.56;36.53;;;;;;2673101;76;20341;-91
2023/04/14 20:06:38;;;;;;;;;;;7.65;36.93;;;;;;2673889;76;20475;-91
2023/04/14 20:10:07;;;;;;;;;;;7.68;36.06;;;;;;2672824;76;20318;-91
2023/04/14 20:13:36;;;;;;;;;;;7.70;35.91;;;;;;2673379;76;20351;-91
2023/04/14 20:17:07;;;;;;;;;;;7.65;35.40;;;;;;2673641;76;20620;-91
2023/04/14 20:20:36;;;;;;;;;;;7.65;36.02;;;;;;2673948;76;20340;-90
2023/04/14 20:24:04;;;;;;;;;;;7.57;35.93;;;;;;2673867;76;20325;-91
2023/04/14 20:27:35;;;;;;;;;;;7.46;36.00;;;;;;2673239;76;20345;-91
2023/04/14 20:31:05;;;;;;;;;;;7.42;36.53;;;;;;2673890;76;20379;-90
2023/04/14 20:34:34;;;;;;;;;;;7.42;36.72;;;;;;2673773;76;20351;-90
2023/04/14 20:38:02;;;;;;;;;;;7.39;36.68;;;;;;2673797;76;20723;-90
2023/04/14 20:41:30;;;;;;;;;;;7.42;36.45;;;;;;2674103;76;20360;-91
2023/04/14 20:44:58;;;;;;;;;;;7.34;36.07;;;;;;2673860;76;20422;-90
2023/04/14 20:48:28;;;;;;;;;;;7.29;36.19;;;;;;2673204;76;20796;-90
2023/04/14 20:51:57;;;;;;;;;;;7.27;36.23;;;;;;2673520;76;20315;-90
2023/04/14 20:55:25;;;;;;;;;;;7.25;36.30;;;;;;2674102;76;20690;-90
2023/04/14 20:58:53;;;;;;;;;;;7.27;36.28;;;;;;2673485;76;20355;-90
2023/04/14 21:02:21;;;;;;;;;;;7.27;36.37;;;;;;2673797;76;20344;-90
2023/04/14 21:05:49;;;;;;;;;;;7.31;36.59;;;;;;2673721;76;20848;-90
2023/04/14 21:09:20;;;;;;;;;;;7.30;36.50;;;;;;2673151;76;20789;-90
2023/04/14 21:12:47;;;;;;;;;;;7.29;36.54;;;;;;2673514;76;20346;-90
2023/04/14 21:16:16;;;;;;;;;;;7.32;36.52;;;;;;2672681;76;20344;-90
2023/04/14 21:19:44;;;;;;;;;;;7.27;36.33;;;;;;2673778;76;20335;-90
2023/04/14 21:23:12;;;;;;;;;;;7.29;36.48;;;;;;2673080;76;20359;-90
2023/04/14 21:26:42;;;;;;;;;;;7.32;36.30;;;;;;2674249;76;20462;-91
2023/04/14 21:30:10;;;;;;;;;;;7.33;36.05;;;;;;2673639;76;20288;-91
2023/04/14 21:33:40;;;;;;;;;;;7.32;35.93;;;;;;2674516;76;20339;-91